sensor_id;sensor_type;location;lat;lon;timestamp;temperature;humidity
24091;DHT22;12272;52.426;17.100;2023-02-15T00:00:39;-0.90;99.90
24091;DHT22;12272;52.426;17.100;2023-02-15T00:05:42;-0.90;99.90
24091;DHT22;12272;52.426;17.100;2023-02-15T00:10:45;-1.00;99.90
24091;DHT22;12272;52.426;17.100;2023-02-15T00:15:47;-1.00;99.90
24091;DHT22;12272;52.426;17.100;2023-02-15T00:20:50;-1.10;99.90
24091;DHT22;12272;52.426;17.100;2023-02-15T00:25:52;-0.90;99.90
24091;DHT22;12272;52.426;17.100;2023-02-15T00:31:09;-1.10;99.90
24091;DHT22;12272;52.426;17.100;2023-02-15T00:36:12;-1.20;99.90
24091;DHT22;12272;52.426;17.100;2023-02-15T00:41:15;-1.00;99.90
24091;DHT22;12272;52.426;17.100;2023-02-15T00:46:18;-1.10;99.90
24091;DHT22;12272;52.426;17.100;2023-02-15T00:51:20;-1.00;99.90
24091;DHT22;12272;52.426;17.100;2023-02-15T00:56:23;-1.00;99.90
24091;DHT22;12272;52.426;17.100;2023-02-15T01:01:26;-0.80;99.90
24091;DHT22;12272;52.426;17.100;2023-02-15T01:06:28;-1.10;99.90
24091;DHT22;12272;52.426;17.100;2023-02-15T01:11:31;-1.10;99.90
24091;DHT22;12272;52.426;17.100;2023-02-15T01:16:34;-1.20;99.90
24091;DHT22;12272;52.426;17.100;2023-02-15T01:21:36;-1.40;99.90
24091;DHT22;12272;52.426;17.100;2023-02-15T01:26:39;-1.40;99.90
24091;DHT22;12272;52.426;17.100;2023-02-15T01:31:42;-1.50;99.90
24091;DHT22;12272;52.426;17.100;2023-02-15T01:36:45;-1.50;99.90
24091;DHT22;12272;52.426;17.100;2023-02-15T01:41:49;-1.50;99.90
24091;DHT22;12272;52.426;17.100;2023-02-15T01:46:53;-1.30;99.90
24091;DHT22;12272;52.426;17.100;2023-02-15T01:51:56;-1.50;99.90
24091;DHT22;12272;52.426;17.100;2023-02-15T01:57:10;-1.60;99.90
24091;DHT22;12272;52.426;17.100;2023-02-15T02:02:16;-1.60;99.90
24091;DHT22;12272;52.426;17.100;2023-02-15T02:07:29;-1.50;99.90
24091;DHT22;12272;52.426;17.100;2023-02-15T02:12:35;-1.60;99.90
24091;DHT22;12272;52.426;17.100;2023-02-15T02:34:21;-1.80;99.90
24091;DHT22;12272;52.426;17.100;2023-02-15T02:44:57;-1.90;99.90
24091;DHT22;12272;52.426;17.100;2023-02-15T02:50:06;-1.90;99.90
24091;DHT22;12272;52.426;17.100;2023-02-15T03:00:21;-1.60;99.90
24091;DHT22;12272;52.426;17.100;2023-02-15T03:05:27;-1.60;99.90
24091;DHT22;12272;52.426;17.100;2023-02-15T03:10:34;-1.70;99.90
24091;DHT22;12272;52.426;17.100;2023-02-15T03:15:40;-1.70;99.90
24091;DHT22;12272;52.426;17.100;2023-02-15T03:21:05;-1.60;99.90
24091;DHT22;12272;52.426;17.100;2023-02-15T03:26:10;-1.70;99.90
24091;DHT22;12272;52.426;17.100;2023-02-15T03:31:14;-1.80;99.90
24091;DHT22;12272;52.426;17.100;2023-02-15T03:41:42;-1.80;99.90
24091;DHT22;12272;52.426;17.100;2023-02-15T03:46:53;-1.90;99.90
24091;DHT22;12272;52.426;17.100;2023-02-15T03:51:59;-2.00;99.90
24091;DHT22;12272;52.426;17.100;2023-02-15T03:57:03;-1.80;99.90
24091;DHT22;12272;52.426;17.100;2023-02-15T04:02:28;-1.50;99.90
24091;DHT22;12272;52.426;17.100;2023-02-15T04:07:36;-1.50;99.90
24091;DHT22;12272;52.426;17.100;2023-02-15T04:12:39;-1.80;99.90
24091;DHT22;12272;52.426;17.100;2023-02-15T04:17:41;-1.90;99.90
24091;DHT22;12272;52.426;17.100;2023-02-15T04:22:44;-2.10;99.90
24091;DHT22;12272;52.426;17.100;2023-02-15T04:28:05;-1.30;99.90
24091;DHT22;12272;52.426;17.100;2023-02-15T04:33:10;-1.00;99.90
24091;DHT22;12272;52.426;17.100;2023-02-15T04:38:12;-1.30;99.90
24091;DHT22;12272;52.426;17.100;2023-02-15T04:43:15;-1.70;99.90
24091;DHT22;12272;52.426;17.100;2023-02-15T04:48:18;-1.90;99.90
24091;DHT22;12272;52.426;17.100;2023-02-15T04:53:20;-1.80;99.90
24091;DHT22;12272;52.426;17.100;2023-02-15T04:58:23;-1.80;99.90
24091;DHT22;12272;52.426;17.100;2023-02-15T05:03:25;-1.80;99.90
24091;DHT22;12272;52.426;17.100;2023-02-15T05:08:28;-1.70;99.90
24091;DHT22;12272;52.426;17.100;2023-02-15T05:13:31;-1.50;99.90
24091;DHT22;12272;52.426;17.100;2023-02-15T05:18:33;-1.60;99.90
24091;DHT22;12272;52.426;17.100;2023-02-15T05:23:36;-1.50;99.90
24091;DHT22;12272;52.426;17.100;2023-02-15T05:28:39;-1.50;99.90
24091;DHT22;12272;52.426;17.100;2023-02-15T05:33:42;-1.50;99.90
24091;DHT22;12272;52.426;17.100;2023-02-15T05:38:45;-1.60;99.90
24091;DHT22;12272;52.426;17.100;2023-02-15T05:43:48;-1.60;99.90
24091;DHT22;12272;52.426;17.100;2023-02-15T05:48:50;-1.50;99.90
24091;DHT22;12272;52.426;17.100;2023-02-15T05:53:53;-0.70;99.90
24091;DHT22;12272;52.426;17.100;2023-02-15T05:58:55;-1.40;99.90
24091;DHT22;12272;52.426;17.100;2023-02-15T06:03:58;-2.80;99.90
24091;DHT22;12272;52.426;17.100;2023-02-15T06:09:01;-3.40;99.90
24091;DHT22;12272;52.426;17.100;2023-02-15T06:14:03;-3.50;99.90
24091;DHT22;12272;52.426;17.100;2023-02-15T06:19:06;-3.70;99.90
24091;DHT22;12272;52.426;17.100;2023-02-15T06:24:09;-3.70;99.90
24091;DHT22;12272;52.426;17.100;2023-02-15T06:29:12;-3.60;99.90
24091;DHT22;12272;52.426;17.100;2023-02-15T06:34:14;-3.50;99.90
24091;DHT22;12272;52.426;17.100;2023-02-15T06:39:17;-3.00;99.90
24091;DHT22;12272;52.426;17.100;2023-02-15T06:44:20;-2.20;99.90
24091;DHT22;12272;52.426;17.100;2023-02-15T06:49:22;-1.70;99.90
24091;DHT22;12272;52.426;17.100;2023-02-15T06:54:25;-1.70;99.90
24091;DHT22;12272;52.426;17.100;2023-02-15T06:59:27;2.50;99.90
24091;DHT22;12272;52.426;17.100;2023-02-15T07:04:30;2.00;99.90
24091;DHT22;12272;52.426;17.100;2023-02-15T07:09:33;1.20;99.90
24091;DHT22;12272;52.426;17.100;2023-02-15T07:14:35;0.50;99.90
24091;DHT22;12272;52.426;17.100;2023-02-15T07:19:38;3.70;99.90
24091;DHT22;12272;52.426;17.100;2023-02-15T07:24:40;2.40;99.90
24091;DHT22;12272;52.426;17.100;2023-02-15T07:29:43;1.80;99.90
24091;DHT22;12272;52.426;17.100;2023-02-15T07:34:46;1.90;99.90
24091;DHT22;12272;52.426;17.100;2023-02-15T07:39:48;2.00;99.90
24091;DHT22;12272;52.426;17.100;2023-02-15T07:44:51;2.80;99.90
24091;DHT22;12272;52.426;17.100;2023-02-15T07:49:54;3.60;99.90
24091;DHT22;12272;52.426;17.100;2023-02-15T07:54:57;4.40;99.90
24091;DHT22;12272;52.426;17.100;2023-02-15T07:59:59;5.50;99.90
24091;DHT22;12272;52.426;17.100;2023-02-15T08:05:02;4.90;99.90
24091;DHT22;12272;52.426;17.100;2023-02-15T08:10:05;5.30;99.90
24091;DHT22;12272;52.426;17.100;2023-02-15T08:15:08;6.70;99.90
24091;DHT22;12272;52.426;17.100;2023-02-15T08:20:11;6.60;99.90
24091;DHT22;12272;52.426;17.100;2023-02-15T08:25:13;6.40;99.90
24091;DHT22;12272;52.426;17.100;2023-02-15T08:30:16;6.00;99.90
24091;DHT22;12272;52.426;17.100;2023-02-15T08:35:20;5.80;99.90
24091;DHT22;12272;52.426;17.100;2023-02-15T08:40:23;5.20;99.90
24091;DHT22;12272;52.426;17.100;2023-02-15T08:45:25;5.00;99.90
24091;DHT22;12272;52.426;17.100;2023-02-15T08:50:28;5.20;99.90
24091;DHT22;12272;52.426;17.100;2023-02-15T08:55:30;5.60;99.90
24091;DHT22;12272;52.426;17.100;2023-02-15T09:00:33;5.50;99.90
24091;DHT22;12272;52.426;17.100;2023-02-15T09:05:36;5.90;99.90
24091;DHT22;12272;52.426;17.100;2023-02-15T09:10:39;5.60;99.90
24091;DHT22;12272;52.426;17.100;2023-02-15T09:15:41;5.80;99.90
24091;DHT22;12272;52.426;17.100;2023-02-15T09:20:50;6.30;99.90
24091;DHT22;12272;52.426;17.100;2023-02-15T09:26:15;7.50;99.90
24091;DHT22;12272;52.426;17.100;2023-02-15T09:31:20;7.70;99.90
24091;DHT22;12272;52.426;17.100;2023-02-15T09:36:30;7.70;99.90
24091;DHT22;12272;52.426;17.100;2023-02-15T09:58:09;7.20;99.90
24091;DHT22;12272;52.426;17.100;2023-02-15T10:13:44;7.10;99.90
24091;DHT22;12272;52.426;17.100;2023-02-15T10:34:39;7.50;99.90
24091;DHT22;12272;52.426;17.100;2023-02-15T11:01:28;5.90;99.90
24091;DHT22;12272;52.426;17.100;2023-02-15T11:06:34;5.60;99.90
24091;DHT22;12272;52.426;17.100;2023-02-15T11:11:39;5.60;99.90
24091;DHT22;12272;52.426;17.100;2023-02-15T11:16:51;5.70;99.90
24091;DHT22;12272;52.426;17.100;2023-02-15T11:21:59;5.80;99.90
24091;DHT22;12272;52.426;17.100;2023-02-15T11:37:37;7.30;99.90
24091;DHT22;12272;52.426;17.100;2023-02-15T11:42:41;6.90;99.90
24091;DHT22;12272;52.426;17.100;2023-02-15T11:47:45;6.90;99.90
24091;DHT22;12272;52.426;17.100;2023-02-15T11:52:49;7.80;99.90
24091;DHT22;12272;52.426;17.100;2023-02-15T12:02:58;8.30;99.90
24091;DHT22;12272;52.426;17.100;2023-02-15T12:08:03;8.20;99.90
24091;DHT22;12272;52.426;17.100;2023-02-15T12:13:15;8.20;99.90
24091;DHT22;12272;52.426;17.100;2023-02-15T12:18:37;7.70;99.90
24091;DHT22;12272;52.426;17.100;2023-02-15T12:23:47;7.40;99.90
24091;DHT22;12272;52.426;17.100;2023-02-15T12:28:51;8.40;99.90
24091;DHT22;12272;52.426;17.100;2023-02-15T12:33:57;7.80;99.90
24091;DHT22;12272;52.426;17.100;2023-02-15T12:49:35;7.30;99.90
24091;DHT22;12272;52.426;17.100;2023-02-15T12:54:40;7.30;99.90
24091;DHT22;12272;52.426;17.100;2023-02-15T12:59:57;7.50;99.90
24091;DHT22;12272;52.426;17.100;2023-02-15T13:11:03;7.20;99.90
24091;DHT22;12272;52.426;17.100;2023-02-15T13:16:14;7.40;99.90
24091;DHT22;12272;52.426;17.100;2023-02-15T13:21:35;7.80;99.90
24091;DHT22;12272;52.426;17.100;2023-02-15T13:26:40;7.90;99.90
24091;DHT22;12272;52.426;17.100;2023-02-15T13:31:47;8.50;99.90
24091;DHT22;12272;52.426;17.100;2023-02-15T13:37:34;8.50;99.90
24091;DHT22;12272;52.426;17.100;2023-02-15T13:42:46;9.20;99.90
24091;DHT22;12272;52.426;17.100;2023-02-15T14:20:39;7.80;99.90
24091;DHT22;12272;52.426;17.100;2023-02-15T14:25:45;7.70;99.90
24091;DHT22;12272;52.426;17.100;2023-02-15T14:30:51;7.60;99.90
24091;DHT22;12272;52.426;17.100;2023-02-15T14:35:55;8.20;99.90
24091;DHT22;12272;52.426;17.100;2023-02-15T14:56:46;8.80;99.90
24091;DHT22;12272;52.426;17.100;2023-02-15T15:22:40;7.90;99.90
24091;DHT22;12272;52.426;17.100;2023-02-15T15:27:50;7.90;99.90
24091;DHT22;12272;52.426;17.100;2023-02-15T15:38:17;8.00;99.90
24091;DHT22;12272;52.426;17.100;2023-02-15T15:49:16;7.60;99.90
24091;DHT22;12272;52.426;17.100;2023-02-15T15:54:22;7.80;99.90
24091;DHT22;12272;52.426;17.100;2023-02-15T15:59:29;7.40;99.90
24091;DHT22;12272;52.426;17.100;2023-02-15T16:04:34;6.80;99.90
24091;DHT22;12272;52.426;17.100;2023-02-15T16:09:37;6.80;99.90
24091;DHT22;12272;52.426;17.100;2023-02-15T16:14:40;6.80;99.90
24091;DHT22;12272;52.426;17.100;2023-02-15T16:19:44;7.00;99.90
24091;DHT22;12272;52.426;17.100;2023-02-15T16:30:36;7.60;99.90
24091;DHT22;12272;52.426;17.100;2023-02-15T16:35:56;8.60;99.90
24091;DHT22;12272;52.426;17.100;2023-02-15T16:40:59;8.60;99.90
24091;DHT22;12272;52.426;17.100;2023-02-15T16:46:09;7.60;99.90
24091;DHT22;12272;52.426;17.100;2023-02-15T16:51:22;6.50;99.90
24091;DHT22;12272;52.426;17.100;2023-02-15T16:56:30;5.40;99.90
24091;DHT22;12272;52.426;17.100;2023-02-15T17:01:33;5.10;99.90
24091;DHT22;12272;52.426;17.100;2023-02-15T17:06:37;4.50;99.90
24091;DHT22;12272;52.426;17.100;2023-02-15T17:11:43;4.20;99.90
24091;DHT22;12272;52.426;17.100;2023-02-15T17:17:21;4.20;99.90
24091;DHT22;12272;52.426;17.100;2023-02-15T17:22:25;4.00;99.90
24091;DHT22;12272;52.426;17.100;2023-02-15T17:27:33;3.90;99.90
24091;DHT22;12272;52.426;17.100;2023-02-15T17:32:37;3.80;99.90
24091;DHT22;12272;52.426;17.100;2023-02-15T17:42:43;3.80;99.90
24091;DHT22;12272;52.426;17.100;2023-02-15T17:47:47;4.10;99.90
24091;DHT22;12272;52.426;17.100;2023-02-15T17:52:51;3.90;99.90
24091;DHT22;12272;52.426;17.100;2023-02-15T17:57:54;3.80;99.90
24091;DHT22;12272;52.426;17.100;2023-02-15T18:02:56;3.80;99.90
24091;DHT22;12272;52.426;17.100;2023-02-15T18:08:22;3.90;99.90
24091;DHT22;12272;52.426;17.100;2023-02-15T18:13:46;3.40;99.90
24091;DHT22;12272;52.426;17.100;2023-02-15T18:18:49;3.00;99.90
24091;DHT22;12272;52.426;17.100;2023-02-15T18:23:51;2.80;99.90
24091;DHT22;12272;52.426;17.100;2023-02-15T18:28:54;2.60;99.90
24091;DHT22;12272;52.426;17.100;2023-02-15T18:33:58;2.40;99.90
24091;DHT22;12272;52.426;17.100;2023-02-15T18:39:02;2.30;99.90
24091;DHT22;12272;52.426;17.100;2023-02-15T18:44:13;2.10;99.90
24091;DHT22;12272;52.426;17.100;2023-02-15T18:49:15;2.50;99.90
24091;DHT22;12272;52.426;17.100;2023-02-15T18:54:21;4.70;99.90
24091;DHT22;12272;52.426;17.100;2023-02-15T18:59:25;4.10;99.90
24091;DHT22;12272;52.426;17.100;2023-02-15T19:04:28;3.20;99.90
24091;DHT22;12272;52.426;17.100;2023-02-15T19:09:31;3.50;99.90
24091;DHT22;12272;52.426;17.100;2023-02-15T19:14:34;3.40;99.90
24091;DHT22;12272;52.426;17.100;2023-02-15T19:19:36;3.10;99.90
24091;DHT22;12272;52.426;17.100;2023-02-15T19:24:42;2.90;99.90
24091;DHT22;12272;52.426;17.100;2023-02-15T19:29:45;2.20;99.90
24091;DHT22;12272;52.426;17.100;2023-02-15T19:34:47;1.70;99.90
24091;DHT22;12272;52.426;17.100;2023-02-15T19:39:50;1.50;99.90
24091;DHT22;12272;52.426;17.100;2023-02-15T19:44:53;1.40;99.90
24091;DHT22;12272;52.426;17.100;2023-02-15T19:49:56;1.20;99.90
24091;DHT22;12272;52.426;17.100;2023-02-15T19:55:05;1.30;99.90
24091;DHT22;12272;52.426;17.100;2023-02-15T20:00:17;1.40;99.90
24091;DHT22;12272;52.426;17.100;2023-02-15T20:05:25;1.20;99.90
24091;DHT22;12272;52.426;17.100;2023-02-15T20:10:30;1.10;99.90
24091;DHT22;12272;52.426;17.100;2023-02-15T20:15:34;1.20;99.90
24091;DHT22;12272;52.426;17.100;2023-02-15T20:20:51;1.20;99.90
24091;DHT22;12272;52.426;17.100;2023-02-15T20:25:57;0.90;99.90
24091;DHT22;12272;52.426;17.100;2023-02-15T20:31:00;0.80;99.90
24091;DHT22;12272;52.426;17.100;2023-02-15T20:36:03;0.80;99.90
24091;DHT22;12272;52.426;17.100;2023-02-15T20:41:12;0.70;99.90
24091;DHT22;12272;52.426;17.100;2023-02-15T20:46:34;0.50;99.90
24091;DHT22;12272;52.426;17.100;2023-02-15T20:51:36;0.60;99.90
24091;DHT22;12272;52.426;17.100;2023-02-15T20:56:39;0.60;99.90
24091;DHT22;12272;52.426;17.100;2023-02-15T21:01:42;0.70;99.90
24091;DHT22;12272;52.426;17.100;2023-02-15T21:06:45;0.50;99.90
24091;DHT22;12272;52.426;17.100;2023-02-15T21:11:49;0.40;99.90
24091;DHT22;12272;52.426;17.100;2023-02-15T21:16:52;0.30;99.90
24091;DHT22;12272;52.426;17.100;2023-02-15T21:21:55;0.20;99.90
24091;DHT22;12272;52.426;17.100;2023-02-15T21:27:01;0.30;99.90
24091;DHT22;12272;52.426;17.100;2023-02-15T21:32:08;0.50;99.90
24091;DHT22;12272;52.426;17.100;2023-02-15T21:37:29;0.20;99.90
24091;DHT22;12272;52.426;17.100;2023-02-15T21:42:32;0.30;99.90
24091;DHT22;12272;52.426;17.100;2023-02-15T21:47:54;1.10;99.90
24091;DHT22;12272;52.426;17.100;2023-02-15T21:52:57;0.90;99.90
24091;DHT22;12272;52.426;17.100;2023-02-15T21:58:00;0.80;99.90
24091;DHT22;12272;52.426;17.100;2023-02-15T22:03:04;0.70;99.90
24091;DHT22;12272;52.426;17.100;2023-02-15T22:08:13;0.40;99.90
24091;DHT22;12272;52.426;17.100;2023-02-15T22:13:22;0.40;99.90
24091;DHT22;12272;52.426;17.100;2023-02-15T22:18:29;0.40;99.90
24091;DHT22;12272;52.426;17.100;2023-02-15T22:23:35;0.70;99.90
24091;DHT22;12272;52.426;17.100;2023-02-15T22:28:38;0.70;99.90
24091;DHT22;12272;52.426;17.100;2023-02-15T22:33:41;0.60;99.90
24091;DHT22;12272;52.426;17.100;2023-02-15T22:38:46;0.10;99.90
24091;DHT22;12272;52.426;17.100;2023-02-15T22:43:48;-0.10;99.90
24091;DHT22;12272;52.426;17.100;2023-02-15T22:48:51;-0.10;99.90
24091;DHT22;12272;52.426;17.100;2023-02-15T22:53:54;0.10;99.90
24091;DHT22;12272;52.426;17.100;2023-02-15T22:59:02;-0.20;99.90
24091;DHT22;12272;52.426;17.100;2023-02-15T23:04:05;-0.30;99.90
24091;DHT22;12272;52.426;17.100;2023-02-15T23:09:10;0.00;99.90
24091;DHT22;12272;52.426;17.100;2023-02-15T23:14:33;0.10;99.90
24091;DHT22;12272;52.426;17.100;2023-02-15T23:19:36;0.30;99.90
24091;DHT22;12272;52.426;17.100;2023-02-15T23:24:39;0.50;99.90
24091;DHT22;12272;52.426;17.100;2023-02-15T23:29:42;0.10;99.90
24091;DHT22;12272;52.426;17.100;2023-02-15T23:34:45;-0.10;99.90
24091;DHT22;12272;52.426;17.100;2023-02-15T23:39:47;-0.20;99.90
24091;DHT22;12272;52.426;17.100;2023-02-15T23:45:20;-0.20;99.90
24091;DHT22;12272;52.426;17.100;2023-02-15T23:50:28;-0.40;99.90
24091;DHT22;12272;52.426;17.100;2023-02-15T23:55:37;-0.50;99.90
